• Join FlightAware (Why Join?)
  • Login
  • US Flag 
03:14PM EST


 

Airport Tracker/Info


-or-


 

Live Flight TrackerFlight Track Log ✈ N210PM ✈ 27-Jul-2013 ✈ KALO - KLNK

Flight Track Log - Related Links

Times and Time Zones

All times are in EDT time to prevent confusion due to time zone crossing. See the N210PM flight status page for this flight to view local times or setup timezone preferences in your user account.

Time Position Orientation Groundspeed Altitude Reporting Facility
EDT Latitude Longitude Course Direction KTS MPH feet Rate Location/Type
07:36PM 42.5733 -92.3994 246° West 134 154 1,800  Level Chicago Center
07:37PM 42.6167 -92.4019 358° North 228 262 5,000 2,940 Climbing Chicago Center
07:38PM 42.6039 -92.4592 253° West 181 208 7,900 2,940 Climbing Chicago Center
07:39PM 42.5753 -92.5350 243° Southwest 184 212 11,100 2,700 Climbing Chicago Center
07:40PM 42.5517 -92.5989 243° Southwest 189 217 13,600 2,280 Climbing Chicago Center
07:41PM 42.5431 -92.6258 247° West 191 220 14,600 1,980 Climbing Minneapolis Center
07:41PM 42.5267 -92.6647 240° Southwest 196 226 15,700 2,040 Climbing Chicago Center
07:42PM 42.3095 -93.0384 246° West  Level FlightAware Approximate
07:42PM 42.5003 -92.7356 243° Southwest 207 238 17,800  Level Chicago Center
07:43PM 42.4736 -92.8064 243° Southwest 212 244 19,600 1,740 Climbing Chicago Center
07:44PM 42.4453 -92.8797 242° Southwest 221 254 21,500 1,140 Climbing Chicago Center
07:45PM 42.4064 -92.9825 243° Southwest 260 299 22,000 240 Climbing Chicago Center
07:46PM 42.3647 -93.0853 241° Southwest 308 354 22,000  Level Chicago Center
07:47PM 42.3494 -93.1281 244° Southwest 314 361 22,000  Level Minneapolis Center
07:48PM 42.3075 -93.2353 242° Southwest 323 372 22,000  Level Minneapolis Center
07:49PM 42.2578 -93.3642 243° Southwest 324 373 22,000  Level Minneapolis Center
07:50PM 42.2156 -93.4725 242° Southwest 328 377 22,000  Level Minneapolis Center
07:51PM 42.1733 -93.5797 242° Southwest 327 376 22,000  Level Minneapolis Center
07:52PM 42.1314 -93.6864 242° Southwest 326 375 22,000  Level Minneapolis Center
07:53PM 42.0892 -93.7917 242° Southwest 323 372 22,000  Level Minneapolis Center
07:54PM 42.0381 -93.9208 242° Southwest 322 371 22,000  Level Minneapolis Center
07:55PM 41.9958 -94.0272 242° Southwest 323 372 22,000  Level Minneapolis Center
07:56PM 41.9614 -94.1114 241° Southwest 322 371 22,000  Level Minneapolis Center
07:57PM 41.9111 -94.2389 242° Southwest 322 371 22,000  Level Minneapolis Center
07:58PM 41.8694 -94.3439 242° Southwest 319 367 22,000  Level Minneapolis Center
07:59PM 41.8272 -94.4472 241° Southwest 316 364 22,000  Level Minneapolis Center
08:00PM 41.7853 -94.5500 241° Southwest 315 362 22,000  Level Minneapolis Center
08:01PM 41.7408 -94.6533 240° Southwest 318 366 22,000  Level Minneapolis Center
08:02PM 41.6906 -94.7792 242° Southwest 321 369 22,000  Level Minneapolis Center
08:03PM 41.6486 -94.8839 242° Southwest 321 369 22,000  Level Minneapolis Center
08:04PM 41.6053 -94.9872 241° Southwest 318 366 22,000  Level Minneapolis Center
08:05PM 41.5625 -95.0917 241° Southwest 319 367 22,000  Level Minneapolis Center
08:06PM 41.5189 -95.1953 241° Southwest 321 369 22,000  Level Minneapolis Center
08:07PM 41.4761 -95.3006 242° Southwest 322 371 22,000  Level Minneapolis Center
08:09PM 41.4319 -95.4042 240° Southwest 321 369 22,000 -60 Level Minneapolis Center
08:09PM 41.3928 -95.5136 245° Southwest 319 367 21,900 -1,020 Descending Minneapolis Center
08:10PM 41.3475 -95.6164 240° Southwest 321 369 20,200 -1,740 Descending Minneapolis Center
08:11PM 41.3042 -95.7158 240° Southwest 317 365 18,400 -1,680 Descending Minneapolis Center
08:12PM 41.2625 -95.8125 240° Southwest 304 350 16,900 -1,320 Descending Minneapolis Center
08:13PM 41.2228 -95.9058 241° Southwest 285 328 15,800 -1,380 Descending Minneapolis Center
08:14PM 41.1861 -95.9875 239° Southwest 280 322 14,300 -1,680 Descending Minneapolis Center
08:15PM 41.1422 -96.0811 238° Southwest 278 320 12,600 -1,620 Descending Minneapolis Center
08:16PM 41.1039 -96.1683 240° Southwest 278 320 11,100 -1,560 Descending Minneapolis Center
08:17PM 41.0608 -96.2506 235° Southwest 279 321 9,500 -1,620 Descending Minneapolis Center
08:18PM 41.0094 -96.3308 230° Southwest 280 322 7,900 -1,560 Descending Minneapolis Center
08:20PM 40.9506 -96.4283 231° Southwest 274 315 6,100 -1,500 Descending Minneapolis Center
08:21PM 40.9069 -96.5019 232° Southwest 250 288 4,700 -1,200 Descending Minneapolis Center
08:21PM 40.8731 -96.5606 233° Southwest 239 275 4,000 -660 Descending Minneapolis Center
08:22PM 40.8669 -96.5972 258° West 248 285 3,900 -840 Descending Minneapolis Center
08:23PM 40.8297 -96.6394 221° Southwest 219 252 3,000 -840 Descending Minneapolis Center
08:24PM 40.7994 -96.6922 233° Southwest 155 178 2,500 -600 Descending Minneapolis Center
08:25PM 40.8000 -96.7361 271° West 121 139 1,900 -420 Descending Minneapolis Center
08:26PM 40.8581 -96.7578 344° North 146 168 1,600 -240 Descending Minneapolis Center